sensor_id;sensor_type;location;lat;lon;timestamp;P1;durP1;ratioP1;P2;durP2;ratioP2
75437;SDS011;64015;49.392;15.582;2023-08-08T00:00:46;6.90;;;1.92;;
75437;SDS011;64015;49.392;15.582;2023-08-08T00:03:32;3.78;;;1.88;;
75437;SDS011;64015;49.392;15.582;2023-08-08T00:05:58;3.53;;;1.73;;
75437;SDS011;64015;49.392;15.582;2023-08-08T00:08:23;3.45;;;2.00;;
75437;SDS011;64015;49.392;15.582;2023-08-08T00:10:49;4.25;;;1.70;;
75437;SDS011;64015;49.392;15.582;2023-08-08T00:13:15;3.63;;;1.92;;
75437;SDS011;64015;49.392;15.582;2023-08-08T00:15:41;4.82;;;2.13;;
75437;SDS011;64015;49.392;15.582;2023-08-08T00:18:13;4.47;;;2.00;;
75437;SDS011;64015;49.392;15.582;2023-08-08T00:20:39;3.63;;;1.45;;
75437;SDS011;64015;49.392;15.582;2023-08-08T00:23:04;4.70;;;2.00;;
75437;SDS011;64015;49.392;15.582;2023-08-08T00:25:30;2.38;;;1.20;;
75437;SDS011;64015;49.392;15.582;2023-08-08T00:27:56;3.83;;;1.70;;
75437;SDS011;64015;49.392;15.582;2023-08-08T00:30:22;4.18;;;1.85;;
75437;SDS011;64015;49.392;15.582;2023-08-08T00:32:57;4.32;;;1.88;;
75437;SDS011;64015;49.392;15.582;2023-08-08T00:35:23;4.20;;;2.00;;
75437;SDS011;64015;49.392;15.582;2023-08-08T00:37:49;4.80;;;1.77;;
75437;SDS011;64015;49.392;15.582;2023-08-08T00:40:15;4.72;;;1.73;;
75437;SDS011;64015;49.392;15.582;2023-08-08T00:42:41;4.72;;;1.65;;
75437;SDS011;64015;49.392;15.582;2023-08-08T00:45:07;2.90;;;1.42;;
75437;SDS011;64015;49.392;15.582;2023-08-08T00:47:33;3.95;;;1.92;;
75437;SDS011;64015;49.392;15.582;2023-08-08T00:50:00;4.78;;;1.75;;
75437;SDS011;64015;49.392;15.582;2023-08-08T00:52:27;3.55;;;1.80;;
75437;SDS011;64015;49.392;15.582;2023-08-08T00:54:54;6.05;;;1.63;;
75437;SDS011;64015;49.392;15.582;2023-08-08T00:57:20;3.80;;;1.58;;
75437;SDS011;64015;49.392;15.582;2023-08-08T00:59:46;2.70;;;1.40;;
75437;SDS011;64015;49.392;15.582;2023-08-08T01:02:30;4.00;;;1.63;;
75437;SDS011;64015;49.392;15.582;2023-08-08T01:04:56;5.20;;;1.60;;
75437;SDS011;64015;49.392;15.582;2023-08-08T01:07:29;4.90;;;1.83;;
75437;SDS011;64015;49.392;15.582;2023-08-08T01:10:15;4.10;;;1.65;;
75437;SDS011;64015;49.392;15.582;2023-08-08T01:12:45;3.80;;;1.30;;
75437;SDS011;64015;49.392;15.582;2023-08-08T01:15:48;5.45;;;1.48;;
75437;SDS011;64015;49.392;15.582;2023-08-08T01:18:15;3.63;;;1.48;;
75437;SDS011;64015;49.392;15.582;2023-08-08T01:20:42;2.92;;;1.25;;
75437;SDS011;64015;49.392;15.582;2023-08-08T01:23:30;3.42;;;1.88;;
75437;SDS011;64015;49.392;15.582;2023-08-08T01:25:59;4.65;;;1.58;;
75437;SDS011;64015;49.392;15.582;2023-08-08T01:28:28;2.97;;;1.50;;
75437;SDS011;64015;49.392;15.582;2023-08-08T01:30:54;2.90;;;1.30;;
75437;SDS011;64015;49.392;15.582;2023-08-08T01:33:19;3.28;;;1.65;;
75437;SDS011;64015;49.392;15.582;2023-08-08T01:38:38;4.90;;;1.80;;
75437;SDS011;64015;49.392;15.582;2023-08-08T01:41:07;3.67;;;1.95;;
75437;SDS011;64015;49.392;15.582;2023-08-08T01:43:34;5.15;;;1.90;;
75437;SDS011;64015;49.392;15.582;2023-08-08T01:46:02;5.47;;;1.85;;
75437;SDS011;64015;49.392;15.582;2023-08-08T01:48:29;3.50;;;1.52;;
75437;SDS011;64015;49.392;15.582;2023-08-08T01:50:55;3.85;;;1.60;;
75437;SDS011;64015;49.392;15.582;2023-08-08T01:53:29;2.75;;;1.60;;
75437;SDS011;64015;49.392;15.582;2023-08-08T01:55:55;3.70;;;1.85;;
75437;SDS011;64015;49.392;15.582;2023-08-08T01:58:21;8.15;;;1.88;;
75437;SDS011;64015;49.392;15.582;2023-08-08T02:00:47;2.70;;;1.60;;
75437;SDS011;64015;49.392;15.582;2023-08-08T02:03:16;2.78;;;1.55;;
75437;SDS011;64015;49.392;15.582;2023-08-08T02:05:41;3.28;;;1.83;;
75437;SDS011;64015;49.392;15.582;2023-08-08T02:08:07;3.08;;;1.88;;
75437;SDS011;64015;49.392;15.582;2023-08-08T02:10:33;4.00;;;1.80;;
75437;SDS011;64015;49.392;15.582;2023-08-08T02:12:59;4.03;;;1.75;;
75437;SDS011;64015;49.392;15.582;2023-08-08T02:15:24;3.60;;;1.60;;
75437;SDS011;64015;49.392;15.582;2023-08-08T02:17:50;3.88;;;1.50;;
75437;SDS011;64015;49.392;15.582;2023-08-08T02:20:31;4.93;;;1.65;;
75437;SDS011;64015;49.392;15.582;2023-08-08T02:22:57;3.13;;;2.10;;
75437;SDS011;64015;49.392;15.582;2023-08-08T02:25:23;2.92;;;1.40;;
75437;SDS011;64015;49.392;15.582;2023-08-08T02:27:48;5.30;;;2.00;;
75437;SDS011;64015;49.392;15.582;2023-08-08T02:30:14;3.83;;;1.73;;
75437;SDS011;64015;49.392;15.582;2023-08-08T02:32:40;3.35;;;2.10;;
75437;SDS011;64015;49.392;15.582;2023-08-08T02:35:06;7.45;;;2.00;;
75437;SDS011;64015;49.392;15.582;2023-08-08T02:37:33;2.80;;;1.65;;
75437;SDS011;64015;49.392;15.582;2023-08-08T02:40:03;4.38;;;1.80;;
75437;SDS011;64015;49.392;15.582;2023-08-08T02:42:30;3.33;;;1.95;;
75437;SDS011;64015;49.392;15.582;2023-08-08T02:44:56;3.63;;;1.70;;
75437;SDS011;64015;49.392;15.582;2023-08-08T02:47:21;4.93;;;1.70;;
75437;SDS011;64015;49.392;15.582;2023-08-08T02:49:53;3.25;;;1.50;;
75437;SDS011;64015;49.392;15.582;2023-08-08T02:52:19;4.82;;;1.70;;
75437;SDS011;64015;49.392;15.582;2023-08-08T02:54:45;4.85;;;2.22;;
75437;SDS011;64015;49.392;15.582;2023-08-08T02:57:15;3.40;;;1.67;;
75437;SDS011;64015;49.392;15.582;2023-08-08T02:59:41;3.28;;;1.27;;
75437;SDS011;64015;49.392;15.582;2023-08-08T03:02:07;4.05;;;2.10;;
75437;SDS011;64015;49.392;15.582;2023-08-08T03:04:33;4.53;;;2.08;;
75437;SDS011;64015;49.392;15.582;2023-08-08T03:06:59;4.65;;;2.53;;
75437;SDS011;64015;49.392;15.582;2023-08-08T03:09:34;4.05;;;2.00;;
75437;SDS011;64015;49.392;15.582;2023-08-08T03:12:00;5.50;;;1.85;;
75437;SDS011;64015;49.392;15.582;2023-08-08T03:14:25;3.88;;;1.65;;
75437;SDS011;64015;49.392;15.582;2023-08-08T03:16:51;2.55;;;1.55;;
75437;SDS011;64015;49.392;15.582;2023-08-08T03:19:17;4.15;;;2.13;;
75437;SDS011;64015;49.392;15.582;2023-08-08T03:21:43;2.72;;;1.55;;
75437;SDS011;64015;49.392;15.582;2023-08-08T03:24:09;3.17;;;1.77;;
75437;SDS011;64015;49.392;15.582;2023-08-08T03:26:34;3.63;;;1.88;;
75437;SDS011;64015;49.392;15.582;2023-08-08T03:29:00;3.60;;;1.90;;
75437;SDS011;64015;49.392;15.582;2023-08-08T03:31:26;5.10;;;1.63;;
75437;SDS011;64015;49.392;15.582;2023-08-08T03:33:52;5.95;;;2.25;;
75437;SDS011;64015;49.392;15.582;2023-08-08T03:36:18;5.82;;;2.10;;
75437;SDS011;64015;49.392;15.582;2023-08-08T03:38:44;3.38;;;1.95;;
75437;SDS011;64015;49.392;15.582;2023-08-08T03:41:11;4.85;;;2.15;;
75437;SDS011;64015;49.392;15.582;2023-08-08T03:43:38;4.25;;;1.40;;
75437;SDS011;64015;49.392;15.582;2023-08-08T03:46:04;4.07;;;1.90;;
75437;SDS011;64015;49.392;15.582;2023-08-08T03:48:30;5.32;;;2.08;;
75437;SDS011;64015;49.392;15.582;2023-08-08T03:50:55;4.03;;;2.17;;
75437;SDS011;64015;49.392;15.582;2023-08-08T03:53:21;5.97;;;2.08;;
75437;SDS011;64015;49.392;15.582;2023-08-08T03:55:50;3.10;;;1.63;;
75437;SDS011;64015;49.392;15.582;2023-08-08T03:58:16;4.30;;;1.98;;
75437;SDS011;64015;49.392;15.582;2023-08-08T04:00:42;4.72;;;2.30;;
75437;SDS011;64015;49.392;15.582;2023-08-08T04:03:23;4.85;;;2.15;;
75437;SDS011;64015;49.392;15.582;2023-08-08T04:05:49;3.35;;;1.83;;
75437;SDS011;64015;49.392;15.582;2023-08-08T04:08:15;4.80;;;2.05;;
75437;SDS011;64015;49.392;15.582;2023-08-08T04:10:41;4.40;;;2.20;;
75437;SDS011;64015;49.392;15.582;2023-08-08T04:13:09;3.35;;;1.77;;
75437;SDS011;64015;49.392;15.582;2023-08-08T04:15:53;4.15;;;2.10;;
75437;SDS011;64015;49.392;15.582;2023-08-08T04:18:25;3.15;;;1.88;;
75437;SDS011;64015;49.392;15.582;2023-08-08T04:20:51;4.32;;;2.15;;
75437;SDS011;64015;49.392;15.582;2023-08-08T04:23:17;3.85;;;2.13;;
75437;SDS011;64015;49.392;15.582;2023-08-08T04:25:48;3.05;;;1.80;;
75437;SDS011;64015;49.392;15.582;2023-08-08T04:28:15;5.03;;;2.92;;
75437;SDS011;64015;49.392;15.582;2023-08-08T04:30:53;3.50;;;2.35;;
75437;SDS011;64015;49.392;15.582;2023-08-08T04:33:19;3.78;;;2.50;;
75437;SDS011;64015;49.392;15.582;2023-08-08T04:35:45;3.38;;;2.53;;
75437;SDS011;64015;49.392;15.582;2023-08-08T04:38:13;4.25;;;2.50;;
75437;SDS011;64015;49.392;15.582;2023-08-08T04:40:40;5.18;;;2.33;;
75437;SDS011;64015;49.392;15.582;2023-08-08T04:43:06;4.85;;;2.33;;
75437;SDS011;64015;49.392;15.582;2023-08-08T04:45:31;8.15;;;2.38;;
75437;SDS011;64015;49.392;15.582;2023-08-08T04:50:24;3.72;;;1.73;;
75437;SDS011;64015;49.392;15.582;2023-08-08T04:52:50;4.47;;;2.45;;
75437;SDS011;64015;49.392;15.582;2023-08-08T04:55:16;3.80;;;2.63;;
75437;SDS011;64015;49.392;15.582;2023-08-08T04:57:42;4.47;;;2.33;;
75437;SDS011;64015;49.392;15.582;2023-08-08T05:00:08;4.07;;;2.45;;
75437;SDS011;64015;49.392;15.582;2023-08-08T05:02:46;3.78;;;2.58;;
75437;SDS011;64015;49.392;15.582;2023-08-08T05:05:12;4.45;;;3.15;;
75437;SDS011;64015;49.392;15.582;2023-08-08T05:07:38;5.65;;;2.78;;
75437;SDS011;64015;49.392;15.582;2023-08-08T05:10:04;4.88;;;2.90;;
75437;SDS011;64015;49.392;15.582;2023-08-08T05:12:32;6.40;;;2.85;;
75437;SDS011;64015;49.392;15.582;2023-08-08T05:14:57;7.15;;;2.55;;
75437;SDS011;64015;49.392;15.582;2023-08-08T05:17:26;3.50;;;2.20;;
75437;SDS011;64015;49.392;15.582;2023-08-08T05:19:52;4.97;;;3.05;;
75437;SDS011;64015;49.392;15.582;2023-08-08T05:22:18;4.88;;;2.80;;
75437;SDS011;64015;49.392;15.582;2023-08-08T05:25:01;3.63;;;2.60;;
75437;SDS011;64015;49.392;15.582;2023-08-08T05:27:27;6.00;;;2.28;;
75437;SDS011;64015;49.392;15.582;2023-08-08T05:29:53;4.25;;;2.75;;
75437;SDS011;64015;49.392;15.582;2023-08-08T05:32:19;6.20;;;2.38;;
75437;SDS011;64015;49.392;15.582;2023-08-08T05:34:47;4.38;;;2.83;;
75437;SDS011;64015;49.392;15.582;2023-08-08T05:37:14;5.65;;;2.47;;
75437;SDS011;64015;49.392;15.582;2023-08-08T05:39:40;4.03;;;2.70;;
75437;SDS011;64015;49.392;15.582;2023-08-08T05:42:06;3.80;;;2.47;;
75437;SDS011;64015;49.392;15.582;2023-08-08T05:44:31;3.95;;;2.30;;
75437;SDS011;64015;49.392;15.582;2023-08-08T05:46:58;3.75;;;2.47;;
75437;SDS011;64015;49.392;15.582;2023-08-08T05:49:23;4.65;;;2.58;;
75437;SDS011;64015;49.392;15.582;2023-08-08T05:51:49;3.58;;;2.38;;
75437;SDS011;64015;49.392;15.582;2023-08-08T05:54:15;3.45;;;2.40;;
75437;SDS011;64015;49.392;15.582;2023-08-08T05:56:41;3.00;;;2.30;;
75437;SDS011;64015;49.392;15.582;2023-08-08T05:59:19;4.10;;;2.20;;
75437;SDS011;64015;49.392;15.582;2023-08-08T06:01:45;3.05;;;2.20;;
75437;SDS011;64015;49.392;15.582;2023-08-08T06:04:11;3.38;;;2.33;;
75437;SDS011;64015;49.392;15.582;2023-08-08T06:06:53;4.68;;;2.20;;
75437;SDS011;64015;49.392;15.582;2023-08-08T06:09:19;3.70;;;1.80;;
75437;SDS011;64015;49.392;15.582;2023-08-08T06:11:47;3.55;;;2.03;;
75437;SDS011;64015;49.392;15.582;2023-08-08T06:14:22;3.85;;;2.15;;
75437;SDS011;64015;49.392;15.582;2023-08-08T06:16:48;4.72;;;2.38;;
75437;SDS011;64015;49.392;15.582;2023-08-08T06:19:13;3.10;;;1.92;;
75437;SDS011;64015;49.392;15.582;2023-08-08T06:21:41;4.80;;;2.65;;
75437;SDS011;64015;49.392;15.582;2023-08-08T06:24:07;4.28;;;2.58;;
75437;SDS011;64015;49.392;15.582;2023-08-08T06:26:33;3.03;;;2.00;;
75437;SDS011;64015;49.392;15.582;2023-08-08T06:28:59;4.43;;;2.42;;
75437;SDS011;64015;49.392;15.582;2023-08-08T06:31:25;3.65;;;2.53;;
75437;SDS011;64015;49.392;15.582;2023-08-08T06:33:50;4.13;;;2.30;;
75437;SDS011;64015;49.392;15.582;2023-08-08T06:36:16;3.70;;;2.50;;
75437;SDS011;64015;49.392;15.582;2023-08-08T06:38:42;4.00;;;2.63;;
75437;SDS011;64015;49.392;15.582;2023-08-08T06:41:08;4.40;;;2.55;;
75437;SDS011;64015;49.392;15.582;2023-08-08T06:43:34;4.38;;;2.50;;
75437;SDS011;64015;49.392;15.582;2023-08-08T06:46:04;3.72;;;2.60;;
75437;SDS011;64015;49.392;15.582;2023-08-08T06:48:30;4.38;;;2.70;;
75437;SDS011;64015;49.392;15.582;2023-08-08T06:50:56;5.50;;;2.38;;
75437;SDS011;64015;49.392;15.582;2023-08-08T06:53:22;3.40;;;2.53;;
75437;SDS011;64015;49.392;15.582;2023-08-08T06:55:48;4.75;;;2.75;;
75437;SDS011;64015;49.392;15.582;2023-08-08T06:58:26;4.32;;;2.55;;
75437;SDS011;64015;49.392;15.582;2023-08-08T07:00:52;4.30;;;2.42;;
75437;SDS011;64015;49.392;15.582;2023-08-08T07:03:17;3.72;;;2.17;;
75437;SDS011;64015;49.392;15.582;2023-08-08T07:05:43;4.45;;;2.38;;
75437;SDS011;64015;49.392;15.582;2023-08-08T07:08:09;3.55;;;2.40;;
75437;SDS011;64015;49.392;15.582;2023-08-08T07:10:35;5.80;;;2.95;;
75437;SDS011;64015;49.392;15.582;2023-08-08T07:13:01;3.85;;;2.60;;
75437;SDS011;64015;49.392;15.582;2023-08-08T07:15:27;4.88;;;2.65;;
75437;SDS011;64015;49.392;15.582;2023-08-08T07:17:53;4.35;;;2.58;;
75437;SDS011;64015;49.392;15.582;2023-08-08T07:20:19;3.55;;;2.47;;
75437;SDS011;64015;49.392;15.582;2023-08-08T07:22:45;4.57;;;2.70;;
75437;SDS011;64015;49.392;15.582;2023-08-08T07:25:14;8.50;;;2.63;;
75437;SDS011;64015;49.392;15.582;2023-08-08T07:27:40;3.80;;;2.42;;
75437;SDS011;64015;49.392;15.582;2023-08-08T07:30:07;3.97;;;2.22;;
75437;SDS011;64015;49.392;15.582;2023-08-08T07:32:34;3.47;;;2.38;;
75437;SDS011;64015;49.392;15.582;2023-08-08T07:35:00;2.83;;;2.00;;
75437;SDS011;64015;49.392;15.582;2023-08-08T07:37:31;5.68;;;2.42;;
75437;SDS011;64015;49.392;15.582;2023-08-08T07:39:58;4.00;;;2.58;;
75437;SDS011;64015;49.392;15.582;2023-08-08T07:42:24;2.40;;;1.75;;
75437;SDS011;64015;49.392;15.582;2023-08-08T07:44:50;3.63;;;2.10;;
75437;SDS011;64015;49.392;15.582;2023-08-08T07:47:16;4.18;;;2.50;;
75437;SDS011;64015;49.392;15.582;2023-08-08T07:49:42;3.53;;;2.00;;
75437;SDS011;64015;49.392;15.582;2023-08-08T07:52:07;3.47;;;2.03;;
75437;SDS011;64015;49.392;15.582;2023-08-08T07:54:37;3.47;;;2.08;;
75437;SDS011;64015;49.392;15.582;2023-08-08T07:57:05;2.92;;;1.70;;
75437;SDS011;64015;49.392;15.582;2023-08-08T07:59:38;4.10;;;2.05;;
75437;SDS011;64015;49.392;15.582;2023-08-08T08:02:03;3.30;;;1.98;;
75437;SDS011;64015;49.392;15.582;2023-08-08T08:04:42;5.05;;;2.30;;
75437;SDS011;64015;49.392;15.582;2023-08-08T08:07:11;3.65;;;2.25;;
75437;SDS011;64015;49.392;15.582;2023-08-08T08:09:37;3.33;;;2.00;;
75437;SDS011;64015;49.392;15.582;2023-08-08T08:12:02;4.55;;;2.22;;
75437;SDS011;64015;49.392;15.582;2023-08-08T08:14:35;5.10;;;2.13;;
75437;SDS011;64015;49.392;15.582;2023-08-08T08:17:01;3.03;;;1.73;;
75437;SDS011;64015;49.392;15.582;2023-08-08T08:19:29;3.85;;;1.45;;
75437;SDS011;64015;49.392;15.582;2023-08-08T08:21:57;3.70;;;1.27;;
75437;SDS011;64015;49.392;15.582;2023-08-08T08:24:32;2.13;;;1.77;;
75437;SDS011;64015;49.392;15.582;2023-08-08T08:26:58;4.03;;;1.70;;
75437;SDS011;64015;49.392;15.582;2023-08-08T08:29:27;2.55;;;1.30;;
75437;SDS011;64015;49.392;15.582;2023-08-08T08:31:56;2.65;;;1.48;;
75437;SDS011;64015;49.392;15.582;2023-08-08T08:34:23;3.25;;;1.50;;
75437;SDS011;64015;49.392;15.582;2023-08-08T08:37:01;2.55;;;1.63;;
75437;SDS011;64015;49.392;15.582;2023-08-08T08:41:59;3.60;;;1.90;;
75437;SDS011;64015;49.392;15.582;2023-08-08T08:44:35;2.97;;;1.20;;
75437;SDS011;64015;49.392;15.582;2023-08-08T08:47:07;2.55;;;1.45;;
75437;SDS011;64015;49.392;15.582;2023-08-08T08:49:52;3.15;;;1.55;;
75437;SDS011;64015;49.392;15.582;2023-08-08T08:52:19;3.15;;;1.60;;
75437;SDS011;64015;49.392;15.582;2023-08-08T08:54:45;3.00;;;1.48;;
75437;SDS011;64015;49.392;15.582;2023-08-08T08:57:11;2.55;;;1.92;;
75437;SDS011;64015;49.392;15.582;2023-08-08T08:59:37;4.57;;;1.85;;
75437;SDS011;64015;49.392;15.582;2023-08-08T09:02:04;3.25;;;1.70;;
75437;SDS011;64015;49.392;15.582;2023-08-08T09:04:30;3.47;;;1.70;;
75437;SDS011;64015;49.392;15.582;2023-08-08T09:09:38;3.00;;;1.73;;
75437;SDS011;64015;49.392;15.582;2023-08-08T09:12:06;3.95;;;1.70;;
75437;SDS011;64015;49.392;15.582;2023-08-08T09:14:42;2.75;;;1.95;;
75437;SDS011;64015;49.392;15.582;2023-08-08T09:17:14;3.20;;;1.92;;
75437;SDS011;64015;49.392;15.582;2023-08-08T09:19:49;2.90;;;1.83;;
75437;SDS011;64015;49.392;15.582;2023-08-08T09:22:16;2.85;;;1.88;;
75437;SDS011;64015;49.392;15.582;2023-08-08T09:24:41;2.60;;;1.60;;
75437;SDS011;64015;49.392;15.582;2023-08-08T09:30:14;2.30;;;1.50;;
75437;SDS011;64015;49.392;15.582;2023-08-08T09:33:11;2.83;;;1.40;;
75437;SDS011;64015;49.392;15.582;2023-08-08T09:35:38;3.20;;;1.73;;
75437;SDS011;64015;49.392;15.582;2023-08-08T09:40:42;3.83;;;1.60;;
75437;SDS011;64015;49.392;15.582;2023-08-08T09:43:28;2.35;;;1.58;;
75437;SDS011;64015;49.392;15.582;2023-08-08T09:45:54;2.38;;;1.60;;
75437;SDS011;64015;49.392;15.582;2023-08-08T09:51:03;2.80;;;1.48;;
75437;SDS011;64015;49.392;15.582;2023-08-08T09:53:30;3.25;;;1.75;;
75437;SDS011;64015;49.392;15.582;2023-08-08T09:55:56;3.38;;;1.67;;
75437;SDS011;64015;49.392;15.582;2023-08-08T09:58:22;3.33;;;1.90;;
75437;SDS011;64015;49.392;15.582;2023-08-08T10:00:51;2.83;;;1.83;;
75437;SDS011;64015;49.392;15.582;2023-08-08T10:03:18;2.20;;;1.38;;
75437;SDS011;64015;49.392;15.582;2023-08-08T10:05:44;2.20;;;1.33;;
75437;SDS011;64015;49.392;15.582;2023-08-08T10:08:11;2.45;;;1.50;;
75437;SDS011;64015;49.392;15.582;2023-08-08T10:10:40;2.05;;;1.30;;
75437;SDS011;64015;49.392;15.582;2023-08-08T10:13:10;2.42;;;1.30;;
75437;SDS011;64015;49.392;15.582;2023-08-08T10:15:48;2.38;;;1.35;;
75437;SDS011;64015;49.392;15.582;2023-08-08T10:18:15;2.95;;;1.27;;
75437;SDS011;64015;49.392;15.582;2023-08-08T10:20:48;2.28;;;1.10;;
75437;SDS011;64015;49.392;15.582;2023-08-08T10:30:16;1.70;;;1.00;;
75437;SDS011;64015;49.392;15.582;2023-08-08T10:32:43;2.00;;;1.20;;
75437;SDS011;64015;49.392;15.582;2023-08-08T10:35:11;2.30;;;1.17;;
75437;SDS011;64015;49.392;15.582;2023-08-08T10:40:04;1.70;;;1.00;;
75437;SDS011;64015;49.392;15.582;2023-08-08T10:42:33;2.30;;;1.13;;
75437;SDS011;64015;49.392;15.582;2023-08-08T10:45:17;2.10;;;1.00;;
75437;SDS011;64015;49.392;15.582;2023-08-08T10:47:43;1.67;;;1.00;;
75437;SDS011;64015;49.392;15.582;2023-08-08T10:50:22;2.70;;;1.15;;
75437;SDS011;64015;49.392;15.582;2023-08-08T10:58:06;1.65;;;1.00;;
75437;SDS011;64015;49.392;15.582;2023-08-08T11:00:56;2.45;;;1.10;;
75437;SDS011;64015;49.392;15.582;2023-08-08T11:03:23;1.50;;;0.90;;
75437;SDS011;64015;49.392;15.582;2023-08-08T11:05:49;3.28;;;1.27;;
75437;SDS011;64015;49.392;15.582;2023-08-08T11:10:41;1.80;;;0.90;;
75437;SDS011;64015;49.392;15.582;2023-08-08T11:13:26;2.22;;;1.23;;
75437;SDS011;64015;49.392;15.582;2023-08-08T11:15:52;1.88;;;1.23;;
75437;SDS011;64015;49.392;15.582;2023-08-08T11:20:53;3.97;;;0.88;;
75437;SDS011;64015;49.392;15.582;2023-08-08T11:23:19;2.00;;;0.98;;
75437;SDS011;64015;49.392;15.582;2023-08-08T11:28:23;2.17;;;1.27;;
75437;SDS011;64015;49.392;15.582;2023-08-08T11:30:48;1.98;;;1.00;;
75437;SDS011;64015;49.392;15.582;2023-08-08T11:33:18;2.05;;;1.25;;
75437;SDS011;64015;49.392;15.582;2023-08-08T11:35:44;3.20;;;1.70;;
75437;SDS011;64015;49.392;15.582;2023-08-08T11:38:12;3.22;;;1.60;;
75437;SDS011;64015;49.392;15.582;2023-08-08T11:40:38;2.28;;;1.77;;
75437;SDS011;64015;49.392;15.582;2023-08-08T11:43:04;1.60;;;1.30;;
75437;SDS011;64015;49.392;15.582;2023-08-08T11:45:54;3.58;;;1.42;;
75437;SDS011;64015;49.392;15.582;2023-08-08T11:48:20;1.73;;;1.38;;
75437;SDS011;64015;49.392;15.582;2023-08-08T11:50:46;2.85;;;1.60;;
75437;SDS011;64015;49.392;15.582;2023-08-08T11:53:14;2.97;;;1.13;;
75437;SDS011;64015;49.392;15.582;2023-08-08T11:55:40;1.25;;;0.55;;
75437;SDS011;64015;49.392;15.582;2023-08-08T11:58:06;2.72;;;0.98;;
75437;SDS011;64015;49.392;15.582;2023-08-08T12:00:37;2.40;;;1.30;;
75437;SDS011;64015;49.392;15.582;2023-08-08T12:03:03;1.83;;;1.40;;
75437;SDS011;64015;49.392;15.582;2023-08-08T12:05:31;2.10;;;1.40;;
75437;SDS011;64015;49.392;15.582;2023-08-08T12:08:06;2.60;;;1.58;;
75437;SDS011;64015;49.392;15.582;2023-08-08T12:10:38;2.47;;;1.20;;
75437;SDS011;64015;49.392;15.582;2023-08-08T12:13:04;2.00;;;1.30;;
75437;SDS011;64015;49.392;15.582;2023-08-08T12:15:35;2.50;;;1.15;;
75437;SDS011;64015;49.392;15.582;2023-08-08T12:18:02;3.65;;;1.45;;
75437;SDS011;64015;49.392;15.582;2023-08-08T12:20:28;13.32;;;1.73;;
75437;SDS011;64015;49.392;15.582;2023-08-08T12:22:58;8.77;;;1.70;;
75437;SDS011;64015;49.392;15.582;2023-08-08T12:25:28;3.55;;;1.23;;
75437;SDS011;64015;49.392;15.582;2023-08-08T12:27:56;2.10;;;1.25;;
75437;SDS011;64015;49.392;15.582;2023-08-08T12:30:22;2.20;;;1.10;;
75437;SDS011;64015;49.392;15.582;2023-08-08T12:32:48;2.78;;;1.20;;
75437;SDS011;64015;49.392;15.582;2023-08-08T12:35:13;2.30;;;1.13;;
75437;SDS011;64015;49.392;15.582;2023-08-08T12:40:46;4.07;;;1.15;;
75437;SDS011;64015;49.392;15.582;2023-08-08T12:43:23;2.22;;;1.10;;
75437;SDS011;64015;49.392;15.582;2023-08-08T12:45:49;3.03;;;1.50;;
75437;SDS011;64015;49.392;15.582;2023-08-08T12:48:37;1.92;;;1.10;;
75437;SDS011;64015;49.392;15.582;2023-08-08T12:51:03;3.22;;;1.60;;
75437;SDS011;64015;49.392;15.582;2023-08-08T12:53:29;2.55;;;1.30;;
75437;SDS011;64015;49.392;15.582;2023-08-08T12:55:54;3.40;;;1.50;;
75437;SDS011;64015;49.392;15.582;2023-08-08T12:58:20;2.35;;;0.95;;
75437;SDS011;64015;49.392;15.582;2023-08-08T13:00:46;2.47;;;1.50;;
75437;SDS011;64015;49.392;15.582;2023-08-08T13:03:12;2.85;;;1.13;;
75437;SDS011;64015;49.392;15.582;2023-08-08T13:05:38;2.05;;;1.17;;
75437;SDS011;64015;49.392;15.582;2023-08-08T13:08:04;3.33;;;1.33;;
75437;SDS011;64015;49.392;15.582;2023-08-08T13:10:30;2.10;;;1.17;;
75437;SDS011;64015;49.392;15.582;2023-08-08T13:12:57;3.60;;;1.58;;
75437;SDS011;64015;49.392;15.582;2023-08-08T13:15:32;2.75;;;1.45;;
75437;SDS011;64015;49.392;15.582;2023-08-08T13:17:58;2.25;;;1.25;;
75437;SDS011;64015;49.392;15.582;2023-08-08T13:22:51;3.30;;;1.20;;
75437;SDS011;64015;49.392;15.582;2023-08-08T13:25:17;2.45;;;1.23;;
75437;SDS011;64015;49.392;15.582;2023-08-08T13:27:44;2.60;;;1.02;;
75437;SDS011;64015;49.392;15.582;2023-08-08T13:30:22;2.75;;;1.30;;
75437;SDS011;64015;49.392;15.582;2023-08-08T13:32:50;2.63;;;1.20;;
75437;SDS011;64015;49.392;15.582;2023-08-08T13:35:15;2.70;;;1.23;;
75437;SDS011;64015;49.392;15.582;2023-08-08T13:37:41;3.25;;;1.40;;
75437;SDS011;64015;49.392;15.582;2023-08-08T13:40:07;1.77;;;1.00;;
75437;SDS011;64015;49.392;15.582;2023-08-08T13:42:37;3.22;;;1.20;;
75437;SDS011;64015;49.392;15.582;2023-08-08T13:45:02;2.22;;;1.13;;
75437;SDS011;64015;49.392;15.582;2023-08-08T13:47:29;2.20;;;1.23;;
75437;SDS011;64015;49.392;15.582;2023-08-08T13:49:54;1.88;;;1.35;;
75437;SDS011;64015;49.392;15.582;2023-08-08T13:52:21;2.63;;;1.40;;
75437;SDS011;64015;49.392;15.582;2023-08-08T13:54:47;1.70;;;1.10;;
75437;SDS011;64015;49.392;15.582;2023-08-08T13:57:13;2.53;;;1.20;;
75437;SDS011;64015;49.392;15.582;2023-08-08T13:59:47;2.30;;;1.52;;
75437;SDS011;64015;49.392;15.582;2023-08-08T14:02:13;1.80;;;0.90;;
75437;SDS011;64015;49.392;15.582;2023-08-08T14:04:39;4.97;;;1.42;;
75437;SDS011;64015;49.392;15.582;2023-08-08T14:07:05;4.55;;;1.40;;
75437;SDS011;64015;49.392;15.582;2023-08-08T14:09:32;1.85;;;1.00;;
75437;SDS011;64015;49.392;15.582;2023-08-08T14:11:58;2.00;;;1.00;;
75437;SDS011;64015;49.392;15.582;2023-08-08T14:14:30;2.75;;;1.30;;
75437;SDS011;64015;49.392;15.582;2023-08-08T14:16:56;5.00;;;2.78;;
75437;SDS011;64015;49.392;15.582;2023-08-08T14:19:22;2.20;;;1.40;;
75437;SDS011;64015;49.392;15.582;2023-08-08T14:21:48;7.60;;;1.75;;
75437;SDS011;64015;49.392;15.582;2023-08-08T14:24:27;4.00;;;1.80;;
75437;SDS011;64015;49.392;15.582;2023-08-08T14:26:53;5.40;;;1.83;;
75437;SDS011;64015;49.392;15.582;2023-08-08T14:29:18;3.70;;;1.55;;
75437;SDS011;64015;49.392;15.582;2023-08-08T14:32:02;3.25;;;1.80;;
75437;SDS011;64015;49.392;15.582;2023-08-08T14:34:29;3.13;;;1.90;;
75437;SDS011;64015;49.392;15.582;2023-08-08T14:39:34;2.70;;;1.60;;
75437;SDS011;64015;49.392;15.582;2023-08-08T14:42:00;3.53;;;1.90;;
75437;SDS011;64015;49.392;15.582;2023-08-08T14:44:30;3.08;;;1.30;;
75437;SDS011;64015;49.392;15.582;2023-08-08T14:46:59;2.38;;;1.13;;
75437;SDS011;64015;49.392;15.582;2023-08-08T14:49:25;5.20;;;1.88;;
75437;SDS011;64015;49.392;15.582;2023-08-08T14:51:56;3.55;;;1.50;;
75437;SDS011;64015;49.392;15.582;2023-08-08T14:54:23;1.55;;;0.90;;
75437;SDS011;64015;49.392;15.582;2023-08-08T14:56:49;4.20;;;1.98;;
75437;SDS011;64015;49.392;15.582;2023-08-08T14:59:18;3.42;;;1.40;;
75437;SDS011;64015;49.392;15.582;2023-08-08T15:01:44;3.90;;;1.25;;
75437;SDS011;64015;49.392;15.582;2023-08-08T15:07:09;2.13;;;1.13;;
75437;SDS011;64015;49.392;15.582;2023-08-08T15:13:46;2.80;;;1.38;;
75437;SDS011;64015;49.392;15.582;2023-08-08T15:16:35;3.25;;;1.27;;
75437;SDS011;64015;49.392;15.582;2023-08-08T15:19:03;4.80;;;2.33;;
75437;SDS011;64015;49.392;15.582;2023-08-08T15:21:35;3.88;;;1.70;;
75437;SDS011;64015;49.392;15.582;2023-08-08T15:24:01;6.53;;;3.20;;
75437;SDS011;64015;49.392;15.582;2023-08-08T15:26:39;11.32;;;6.25;;
75437;SDS011;64015;49.392;15.582;2023-08-08T15:29:05;19.58;;;8.82;;
75437;SDS011;64015;49.392;15.582;2023-08-08T15:31:48;6.22;;;2.83;;
75437;SDS011;64015;49.392;15.582;2023-08-08T15:34:14;2.90;;;1.83;;
75437;SDS011;64015;49.392;15.582;2023-08-08T15:36:51;2.85;;;1.52;;